首页
METAR-TAF:

METAR-TAF

机场 :

利摩日, 法国

纬度: 45-52N, 经度: 001-11E, 海拔: 396米

当前天气观测

该预报发布于27分钟前的02:00 UTC
风速5节,风向西,在西转西南西北之间变化
温度 11°C
湿度 87%
气压 1006 hPa
能见度10公里或以上
少量云层高于1300英尺
散云层高于1800英尺
多云层高于3700英尺

METAR: LFBL 050200Z AUTO 28005KT 250V320 9999 FEW013 SCT018 BKN037 11/09 Q1006 NOSIG

时间: 04:27 (02:27 UTC)

预报

该预报发布于3小时和27分钟前的23:00 UTC
预报有效从05日的 00点(UTC)到 05日的 24点(UTC)
风速8节,风向西
能见度10公里或以上
多云层高于4000英尺
成为
从 05日的 05点(UTC)到 05日的 07点(UTC)
阴天层高于800英尺
成为
从 05日的 07点(UTC)到 05日的 09点(UTC)
能見度: 3000
阴天层高于400英尺
小雨, 毛毛雨
短暂存在
从 05日的 08点(UTC)到 05日的 12点(UTC)
能見度: 1200
阴天层高于200英尺
成为
从 05日的 13点(UTC)到 05日的 15点(UTC)
能見度: 8000
阴天层高于1200英尺
短暂存在
从 05日的 13点(UTC)到 05日的 20点(UTC)
风速15节,风向西转西南,有时为25节阵风
多云层高于1600英尺
阴天层高于3000英尺
几率 30% :
短暂存在
从 05日的 20点(UTC)到 05日的 24点(UTC)
能見度: 3000
阴天层高于700英尺
小毛毛雨, 雨

TAF: LFBL 042300Z 0500/0524 26008KT 9999 BKN040 BECMG 0505/0507 OVC008 BECMG 0507/0509 3000 -RADZ OVC004 TEMPO 0508/0512 1200 OVC002 BECMG 0513/0515 8000 NSW OVC012 TEMPO 0513/0520 25015G25KT BKN016 OVC030 PROB30 TEMPO 0520/0524 3000 -DZRA OVC007

超过4000个机场的气象观测和天气预报(METAR&TAF报告)。

可查询的气象台以黄色和红色小点在地图上表示。

将鼠标移到小点上方,可查看气象台名称。

然后点击查看天气观测和预报。

如需切换地图:点击带黑十字的绿色按钮放大地图;点击带横线的绿色按钮缩小地图;或者点击绿色箭头查看邻近地区的地图。


METAR-TAF: